Time;durP1;ratioP1;P1;durP2;ratioP2;P2;SDS_P1;SDS_P2;PMS_P1;PMS_P2;Temp;Humidity;BMP_temperature;BMP_pressure;BME280_temperature;BME280_humidity;BME280_pressure;Samples;Min_cycle;Max_cycle;Signal;HPM_P1;HPM_P2
2022/08/31 00:05:59;;;;;;;4.65;2.95;;;20.60;99.90;;;;;;5031784;28;20278;-48
2022/08/31 00:08:26;;;;;;;10.15;3.10;;;20.50;99.90;;;;;;5031818;28;20167;-49
2022/08/31 00:10:54;;;;;;;4.32;3.05;;;20.50;99.90;;;;;;5032118;28;20250;-48
2022/08/31 00:13:24;;;;;;;3.25;2.80;;;20.50;99.90;;;;;;5031617;28;20311;-48
2022/08/31 00:15:51;;;;;;;2.90;2.63;;;20.50;99.90;;;;;;5031736;28;20177;-48
2022/08/31 00:18:17;;;;;;;4.40;3.25;;;20.40;99.90;;;;;;5031629;28;20181;-48
2022/08/31 00:20:44;;;;;;;3.97;2.63;;;20.30;99.90;;;;;;5030429;28;20259;-47
2022/08/31 00:23:11;;;;;;;3.45;2.92;;;20.40;99.90;;;;;;5031465;28;20190;-46
2022/08/31 00:25:40;;;;;;;6.18;3.05;;;20.20;99.90;;;;;;5031730;28;20179;-47
2022/08/31 00:28:07;;;;;;;3.25;2.95;;;20.30;99.90;;;;;;5031704;28;20220;-49
2022/08/31 00:30:34;;;;;;;4.00;3.03;;;20.30;99.90;;;;;;5031619;28;20175;-47
2022/08/31 00:32:59;;;;;;;4.13;2.70;;;20.10;99.90;;;;;;5031932;28;20174;-51
2022/08/31 00:35:31;;;;;;;3.33;2.92;;;20.10;99.90;;;;;;5031361;28;20531;-50
2022/08/31 00:37:56;;;;;;;4.03;2.90;;;20.10;99.90;;;;;;5033779;28;20167;-51
2022/08/31 00:40:22;;;;;;;4.70;3.40;;;20.00;99.90;;;;;;5035459;28;20174;-51
2022/08/31 00:42:48;;;;;;;5.45;2.95;;;20.10;99.90;;;;;;5035374;28;20167;-51
2022/08/31 00:45:14;;;;;;;3.45;2.75;;;20.20;99.90;;;;;;5035510;28;20262;-50
2022/08/31 00:47:40;;;;;;;4.53;3.10;;;20.10;99.90;;;;;;5035374;28;20170;-51
2022/08/31 00:50:09;;;;;;;3.25;2.95;;;20.10;99.90;;;;;;5035331;28;20245;-51
2022/08/31 00:52:38;;;;;;;7.07;3.90;;;20.10;99.90;;;;;;5035548;28;20519;-51
2022/08/31 00:55:10;;;;;;;4.85;3.17;;;20.10;99.90;;;;;;5035285;28;20172;-49
2022/08/31 00:57:39;;;;;;;3.67;3.35;;;20.00;99.90;;;;;;5035491;28;20174;-51
2022/08/31 01:00:10;;;;;;;4.05;3.45;;;20.00;99.90;;;;;;5035144;28;20179;-51
2022/08/31 01:02:35;;;;;;;4.63;3.30;;;19.90;99.90;;;;;;5035308;28;20171;-52
2022/08/31 01:05:01;;;;;;;3.28;2.97;;;19.90;99.90;;;;;;5035155;28;20673;-48
2022/08/31 01:07:27;;;;;;;3.40;2.70;;;19.90;99.90;;;;;;5034047;28;20171;-50
2022/08/31 01:09:54;;;;;;;3.53;3.22;;;19.80;99.90;;;;;;5034903;28;20172;-51
2022/08/31 01:12:20;;;;;;;4.38;2.90;;;19.80;99.90;;;;;;5034878;28;20159;-51
2022/08/31 01:14:46;;;;;;;8.88;3.40;;;19.80;99.90;;;;;;5034856;28;20225;-52
2022/08/31 01:17:11;;;;;;;3.90;2.97;;;19.80;99.90;;;;;;5034836;28;20172;-51
2022/08/31 01:19:38;;;;;;;4.82;3.20;;;19.70;99.90;;;;;;5034804;28;20164;-52
2022/08/31 01:22:35;;;;;;;4.03;3.05;;;19.60;99.90;;;;;;5034584;28;20171;-50
2022/08/31 01:25:01;;;;;;;4.50;2.88;;;19.50;99.90;;;;;;5035036;28;20265;-51
2022/08/31 01:27:31;;;;;;;5.75;3.08;;;20.90;99.90;;;;;;5035084;28;20167;-51
2022/08/31 01:30:09;;;;;;;6.50;3.22;;;19.40;99.90;;;;;;5035091;28;20183;-50
2022/08/31 01:32:35;;;;;;;6.82;3.28;;;19.40;99.90;;;;;;5034301;28;20164;-50
2022/08/31 01:35:01;;;;;;;4.43;3.15;;;19.40;99.90;;;;;;5034497;28;20646;-46
2022/08/31 01:37:27;;;;;;;6.15;3.20;;;19.40;99.90;;;;;;5034648;28;20163;-51
2022/08/31 01:39:53;;;;;;;5.40;3.80;;;19.40;99.90;;;;;;5034343;28;20686;-51
2022/08/31 01:42:18;;;;;;;6.80;3.63;;;19.40;99.90;;;;;;5034450;28;20187;-51
2022/08/31 01:44:44;;;;;;;5.28;3.15;;;19.30;99.90;;;;;;5034417;28;20246;-50
2022/08/31 01:47:10;;;;;;;4.07;3.67;;;19.30;99.90;;;;;;5033747;28;20206;-51
2022/08/31 01:49:36;;;;;;;6.00;3.45;;;19.10;99.90;;;;;;5033722;28;20164;-50
2022/08/31 01:52:04;;;;;;;4.10;3.70;;;19.00;99.90;;;;;;5034173;28;20171;-51
2022/08/31 01:54:29;;;;;;;4.25;3.05;;;19.00;99.90;;;;;;5034481;28;20177;-50
2022/08/31 01:56:56;;;;;;;5.05;3.50;;;18.90;99.90;;;;;;5034078;28;20674;-51
2022/08/31 01:59:22;;;;;;;6.22;3.67;;;18.90;99.90;;;;;;5034268;28;20267;-51
2022/08/31 02:01:51;;;;;;;6.40;4.15;;;18.90;99.90;;;;;;5034234;28;20258;-49
2022/08/31 02:04:18;;;;;;;4.60;3.80;;;19.00;99.90;;;;;;5034008;28;20207;-51
2022/08/31 02:06:47;;;;;;;5.80;3.60;;;18.90;99.90;;;;;;5033897;28;20199;-47
2022/08/31 02:09:14;;;;;;;6.53;3.88;;;18.90;99.90;;;;;;5033712;28;20268;-47
2022/08/31 02:11:40;;;;;;;6.15;3.78;;;18.90;99.90;;;;;;5034053;28;20167;-47
2022/08/31 02:14:07;;;;;;;4.57;3.53;;;18.90;99.90;;;;;;5033641;28;20254;-47
2022/08/31 02:16:32;;;;;;;7.30;4.25;;;18.70;99.90;;;;;;5033628;28;20171;-48
2022/08/31 02:18:58;;;;;;;8.45;4.43;;;18.70;99.90;;;;;;5033960;28;20175;-48
2022/08/31 02:21:24;;;;;;;7.65;3.92;;;18.70;99.90;;;;;;5033651;28;20167;-47
2022/08/31 02:23:50;;;;;;;6.50;4.18;;;18.60;99.90;;;;;;5033505;28;20585;-47
2022/08/31 02:26:15;;;;;;;6.50;4.65;;;18.40;99.90;;;;;;5033646;28;20174;-48
2022/08/31 02:28:41;;;;;;;5.40;4.07;;;18.50;99.90;;;;;;5033535;28;20167;-49
2022/08/31 02:31:06;;;;;;;6.50;3.92;;;18.60;99.90;;;;;;5033483;28;20643;-48
2022/08/31 02:33:32;;;;;;;5.13;3.95;;;18.60;99.90;;;;;;5033531;28;20198;-49
2022/08/31 02:35:58;;;;;;;6.30;4.28;;;18.60;99.90;;;;;;5033789;28;20171;-48
2022/08/31 02:38:24;;;;;;;6.72;4.38;;;18.50;99.90;;;;;;5033681;28;20218;-48
2022/08/31 02:40:50;;;;;;;6.00;3.92;;;18.50;99.90;;;;;;5033455;28;20169;-48
2022/08/31 02:43:16;;;;;;;4.43;4.00;;;18.60;99.90;;;;;;5033278;28;20290;-48
2022/08/31 02:45:42;;;;;;;6.40;4.35;;;18.60;99.90;;;;;;5033207;28;20226;-48
2022/08/31 02:48:09;;;;;;;5.65;4.45;;;18.60;99.90;;;;;;5033258;28;20191;-48
2022/08/31 02:50:40;;;;;;;5.60;4.53;;;18.60;99.90;;;;;;5033252;28;20163;-48
2022/08/31 02:53:07;;;;;;;6.88;4.15;;;18.60;99.90;;;;;;5033116;28;20290;-48
2022/08/31 02:55:33;;;;;;;5.28;4.55;;;18.70;99.90;;;;;;5033033;28;20225;-49
2022/08/31 02:57:58;;;;;;;6.93;4.80;;;18.60;99.90;;;;;;5033450;28;20258;-48
2022/08/31 03:00:24;;;;;;;7.55;4.38;;;18.70;99.90;;;;;;5032000;28;20170;-48
2022/08/31 03:02:50;;;;;;;6.95;4.65;;;18.60;99.90;;;;;;5032767;28;20174;-48
2022/08/31 03:05:16;;;;;;;6.95;4.72;;;18.50;99.90;;;;;;5032977;28;20175;-49
2022/08/31 03:07:42;;;;;;;7.30;5.03;;;18.50;99.90;;;;;;5032795;28;20168;-48
2022/08/31 03:10:10;;;;;;;6.05;4.68;;;18.60;99.90;;;;;;5032873;28;20171;-47
2022/08/31 03:12:37;;;;;;;5.88;4.22;;;18.50;99.90;;;;;;5032651;28;20198;-48
2022/08/31 03:15:05;;;;;;;5.88;4.78;;;18.40;99.90;;;;;;5032677;28;20178;-48
2022/08/31 03:17:31;;;;;;;9.70;4.70;;;18.50;99.90;;;;;;5032897;28;20168;-48
2022/08/31 03:19:59;;;;;;;10.18;4.88;;;18.60;99.90;;;;;;5032701;28;20183;-48
2022/08/31 03:22:26;;;;;;;9.07;5.47;;;18.60;99.90;;;;;;5033132;28;20167;-47
2022/08/31 03:24:51;;;;;;;9.80;5.25;;;18.50;99.90;;;;;;5032499;28;20195;-47
2022/08/31 03:27:17;;;;;;;6.00;4.90;;;18.60;99.90;;;;;;5032502;28;20164;-48
2022/08/31 03:29:43;;;;;;;8.48;5.28;;;18.50;99.90;;;;;;5032781;28;20174;-48
2022/08/31 03:32:08;;;;;;;8.60;6.07;;;18.60;99.90;;;;;;5032490;28;20282;-49
2022/08/31 03:34:34;;;;;;;8.68;7.07;;;18.60;99.90;;;;;;5032635;28;20207;-48
2022/08/31 03:37:00;;;;;;;22.20;9.50;;;18.50;99.90;;;;;;5032247;28;20201;-48
2022/08/31 03:39:26;;;;;;;20.20;11.02;;;18.60;99.90;;;;;;5032593;28;20196;-48
2022/08/31 03:41:51;;;;;;;17.38;10.13;;;18.60;99.90;;;;;;5032259;28;20180;-49
2022/08/31 03:44:22;;;;;;;10.18;7.28;;;18.60;99.90;;;;;;5032260;28;20218;-50
2022/08/31 03:46:54;;;;;;;11.05;6.30;;;18.60;99.90;;;;;;5032464;28;20167;-51
2022/08/31 03:49:20;;;;;;;5.95;5.10;;;18.50;99.90;;;;;;5032390;28;20179;-50
2022/08/31 03:51:46;;;;;;;9.48;6.00;;;18.50;99.90;;;;;;5031999;28;20178;-50
2022/08/31 03:54:13;;;;;;;8.77;5.68;;;18.40;99.90;;;;;;5031869;28;20167;-50
2022/08/31 03:56:38;;;;;;;6.90;5.97;;;18.40;99.90;;;;;;5032083;28;20171;-49
2022/08/31 03:59:05;;;;;;;6.90;5.05;;;18.40;99.90;;;;;;5032286;28;20173;-49
2022/08/31 04:01:31;;;;;;;9.93;5.75;;;18.30;99.90;;;;;;5032002;28;20526;-48
2022/08/31 04:03:56;;;;;;;7.50;4.90;;;18.20;99.90;;;;;;5032232;28;20213;-49
2022/08/31 04:06:22;;;;;;;7.43;5.18;;;18.20;99.90;;;;;;5031937;28;20198;-50
2022/08/31 04:08:48;;;;;;;7.80;6.07;;;18.30;99.90;;;;;;5031809;28;20163;-49
2022/08/31 04:11:16;;;;;;;6.82;5.55;;;18.30;99.90;;;;;;5031620;28;20260;-51
2022/08/31 04:13:42;;;;;;;6.90;5.32;;;18.30;99.90;;;;;;5031838;28;20310;-51
2022/08/31 04:16:11;;;;;;;5.85;5.28;;;18.20;99.90;;;;;;5031737;28;20175;-51
2022/08/31 04:18:38;;;;;;;7.40;6.15;;;18.20;99.90;;;;;;5032075;28;20258;-51
2022/08/31 04:21:20;;;;;;;10.15;6.20;;;18.20;99.90;;;;;;5031904;28;20195;-51
2022/08/31 04:23:47;;;;;;;8.02;5.60;;;18.20;99.90;;;;;;5031879;28;20289;-51
2022/08/31 04:26:22;;;;;;;10.10;6.45;;;18.20;99.90;;;;;;5031742;28;20167;-51
2022/08/31 04:28:48;;;;;;;9.05;6.20;;;18.20;99.90;;;;;;5031800;28;20567;-51
2022/08/31 04:31:15;;;;;;;7.75;5.47;;;18.20;99.90;;;;;;5031692;28;20633;-50
2022/08/31 04:33:41;;;;;;;10.10;5.97;;;18.20;99.90;;;;;;5031703;28;20175;-48
2022/08/31 04:36:10;;;;;;;8.77;5.07;;;18.10;99.90;;;;;;5031280;28;20178;-50
2022/08/31 04:38:36;;;;;;;9.48;6.05;;;18.20;99.90;;;;;;5031527;28;20167;-51
2022/08/31 04:41:08;;;;;;;7.38;6.28;;;18.20;99.90;;;;;;5031826;28;20521;-50
2022/08/31 04:43:34;;;;;;;7.05;5.82;;;18.20;99.90;;;;;;5031721;28;20203;-50
2022/08/31 04:46:05;;;;;;;6.13;5.25;;;18.20;99.90;;;;;;5031523;28;20172;-48
2022/08/31 04:48:31;;;;;;;7.28;5.38;;;18.20;99.90;;;;;;5030162;28;20171;-51
2022/08/31 04:51:06;;;;;;;9.10;5.75;;;18.30;99.90;;;;;;5031843;28;20166;-50
2022/08/31 04:53:33;;;;;;;7.72;5.72;;;18.30;99.90;;;;;;5031562;28;20718;-50
2022/08/31 04:56:08;;;;;;;7.95;5.95;;;18.30;99.90;;;;;;5031715;28;20167;-50
2022/08/31 04:58:33;;;;;;;8.00;5.68;;;18.20;99.90;;;;;;5031211;28;20179;-50
2022/08/31 05:00:59;;;;;;;6.90;6.15;;;18.20;99.90;;;;;;5031598;28;20176;-51
2022/08/31 05:03:24;;;;;;;10.75;6.00;;;18.20;99.90;;;;;;5031414;28;20209;-50
2022/08/31 05:05:52;;;;;;;9.20;6.00;;;18.10;99.90;;;;;;5031168;28;20647;-51
2022/08/31 05:08:18;;;;;;;12.65;7.35;;;18.10;99.90;;;;;;5031350;28;20254;-51
2022/08/31 05:10:44;;;;;;;13.25;7.63;;;18.10;99.90;;;;;;5031316;28;20172;-50
2022/08/31 05:13:10;;;;;;;13.35;8.18;;;18.20;99.90;;;;;;5030964;28;20207;-51
2022/08/31 05:15:41;;;;;;;11.55;7.43;;;18.10;99.90;;;;;;5031177;28;20619;-48
2022/08/31 05:18:07;;;;;;;7.05;6.38;;;18.30;99.90;;;;;;5031221;28;20163;-49
2022/08/31 05:20:32;;;;;;;10.25;6.97;;;18.20;99.90;;;;;;5030915;28;20525;-48
2022/08/31 05:22:58;;;;;;;11.30;6.82;;;18.20;99.90;;;;;;5031879;28;20171;-48
2022/08/31 05:25:24;;;;;;;7.63;6.15;;;18.20;99.90;;;;;;5034734;28;20249;-48
2022/08/31 05:27:49;;;;;;;8.15;6.35;;;18.20;99.90;;;;;;5034972;28;20261;-49
2022/08/31 05:30:15;;;;;;;14.00;7.32;;;18.20;99.90;;;;;;5033424;28;20175;-48
2022/08/31 05:32:40;;;;;;;7.07;6.32;;;18.30;99.90;;;;;;5034565;28;20207;-49
2022/08/31 05:35:06;;;;;;;8.77;5.53;;;18.30;99.90;;;;;;5034484;28;20681;-49
2022/08/31 05:37:32;;;;;;;6.25;5.53;;;18.20;99.90;;;;;;5034737;28;20242;-48
2022/08/31 05:39:57;;;;;;;8.05;5.70;;;18.30;99.90;;;;;;5034738;28;20175;-51
2022/08/31 05:42:23;;;;;;;8.73;6.28;;;18.20;99.90;;;;;;5034525;28;20163;-49
2022/08/31 05:44:49;;;;;;;15.10;5.68;;;18.20;99.90;;;;;;5034215;28;20215;-51
2022/08/31 05:47:14;;;;;;;7.28;5.78;;;18.20;99.90;;;;;;5033755;28;20171;-49
2022/08/31 05:49:42;;;;;;;7.45;5.47;;;18.20;99.90;;;;;;5033711;28;20195;-49
2022/08/31 05:52:08;;;;;;;8.77;5.85;;;18.30;99.90;;;;;;5034173;28;20250;-48
2022/08/31 05:54:35;;;;;;;10.55;5.90;;;18.30;99.90;;;;;;5034226;28;20209;-48
2022/08/31 05:57:01;;;;;;;8.50;6.55;;;18.30;99.90;;;;;;5034153;28;20174;-49
2022/08/31 05:59:27;;;;;;;9.07;6.03;;;18.30;99.90;;;;;;5034650;28;20274;-48
2022/08/31 06:01:53;;;;;;;9.07;6.03;;;18.40;99.90;;;;;;5033984;28;20207;-49
2022/08/31 06:04:18;;;;;;;9.07;5.90;;;18.40;99.90;;;;;;5033907;28;20234;-49
2022/08/31 06:06:44;;;;;;;7.72;5.72;;;18.30;99.90;;;;;;5033742;28;20611;-49
2022/08/31 06:09:10;;;;;;;7.72;5.75;;;18.30;99.90;;;;;;5033788;28;20163;-48
2022/08/31 06:11:41;;;;;;;8.48;5.22;;;18.40;99.90;;;;;;5034005;28;20646;-49
2022/08/31 06:14:08;;;;;;;7.20;5.70;;;18.40;99.90;;;;;;5033472;28;20348;-49
2022/08/31 06:16:36;;;;;;;6.60;5.80;;;18.30;99.90;;;;;;5033957;28;20238;-47
2022/08/31 06:19:05;;;;;;;11.50;6.07;;;18.40;99.90;;;;;;5033780;28;20171;-48
2022/08/31 06:21:33;;;;;;;6.85;5.30;;;18.40;99.90;;;;;;5033921;28;20527;-48
2022/08/31 06:24:01;;;;;;;12.27;7.10;;;18.40;99.90;;;;;;5033868;28;20214;-48
2022/08/31 06:26:30;;;;;;;17.80;11.50;;;18.50;99.90;;;;;;5034102;28;20163;-49
2022/08/31 06:28:58;;;;;;;10.10;7.13;;;18.40;99.90;;;;;;5032539;28;20179;-50
2022/08/31 06:31:31;;;;;;;6.75;5.18;;;18.40;99.90;;;;;;5033479;28;20685;-50
2022/08/31 06:33:58;;;;;;;6.47;5.30;;;18.40;99.90;;;;;;5033812;28;20203;-49
2022/08/31 06:36:27;;;;;;;8.32;5.20;;;18.40;99.90;;;;;;5032234;28;20627;-51
2022/08/31 06:38:54;;;;;;;6.55;5.07;;;18.40;99.90;;;;;;5033388;28;20182;-51
2022/08/31 06:41:23;;;;;;;8.55;5.43;;;18.20;99.90;;;;;;5033259;28;20195;-49
2022/08/31 06:43:48;;;;;;;8.93;5.68;;;18.20;99.90;;;;;;5033100;28;20675;-49
2022/08/31 06:46:16;;;;;;;5.50;4.90;;;18.20;99.90;;;;;;5033261;28;20178;-48
2022/08/31 06:48:42;;;;;;;11.07;5.97;;;18.20;99.90;;;;;;5033373;28;20178;-48
2022/08/31 06:51:09;;;;;;;9.73;6.13;;;18.30;99.90;;;;;;5033171;28;20193;-48
2022/08/31 06:53:35;;;;;;;8.07;6.03;;;18.30;99.90;;;;;;5033314;28;20214;-48
2022/08/31 06:56:06;;;;;;;7.10;5.50;;;18.40;99.90;;;;;;5033513;28;20505;-50
2022/08/31 06:58:32;;;;;;;6.63;5.47;;;18.40;99.90;;;;;;5033018;28;20183;-51
2022/08/31 07:01:03;;;;;;;8.02;6.45;;;18.30;99.90;;;;;;5033251;28;20171;-48
2022/08/31 07:03:32;;;;;;;8.90;5.80;;;18.40;99.90;;;;;;5033412;28;20542;-49
2022/08/31 07:06:13;;;;;;;6.18;5.40;;;18.50;99.90;;;;;;5033118;28;20513;-48
2022/08/31 07:08:39;;;;;;;10.05;6.10;;;18.50;99.90;;;;;;5033031;28;20167;-51
2022/08/31 07:11:19;;;;;;;8.68;6.32;;;18.50;99.90;;;;;;5032686;28;20194;-49
2022/08/31 07:13:46;;;;;;;7.40;5.20;;;18.60;99.90;;;;;;5032483;28;20223;-49
2022/08/31 07:16:14;;;;;;;6.75;5.35;;;18.60;99.90;;;;;;5032660;28;20173;-50
2022/08/31 07:18:41;;;;;;;6.25;5.38;;;18.60;99.90;;;;;;5032597;28;20159;-48
2022/08/31 07:21:08;;;;;;;7.15;5.70;;;18.60;99.90;;;;;;5032806;28;20182;-49
2022/08/31 07:23:34;;;;;;;6.78;5.50;;;18.60;99.90;;;;;;5032375;28;20553;-47
2022/08/31 07:26:09;;;;;;;7.13;5.20;;;18.60;99.90;;;;;;5032472;28;20245;-47
2022/08/31 07:28:37;;;;;;;8.23;5.40;;;18.60;99.90;;;;;;5032531;28;20171;-51
2022/08/31 07:31:04;;;;;;;7.35;5.07;;;18.60;99.90;;;;;;5032407;28;20270;-51
2022/08/31 07:33:36;;;;;;;7.22;4.97;;;18.60;99.90;;;;;;5032691;28;20167;-50
2022/08/31 07:36:06;;;;;;;6.85;5.05;;;18.60;99.90;;;;;;5032319;28;20167;-51
2022/08/31 07:44:00;;;;;;;9.07;4.88;;;18.80;99.90;;;;;;5032143;28;20222;-51
2022/08/31 07:46:28;;;;;;;9.63;5.40;;;18.80;99.90;;;;;;5032267;28;20533;-51
2022/08/31 07:48:55;;;;;;;5.50;4.38;;;18.70;99.90;;;;;;5032421;28;20155;-51
2022/08/31 07:51:22;;;;;;;7.80;4.93;;;18.90;99.90;;;;;;5032362;28;20163;-51
2022/08/31 07:53:48;;;;;;;5.45;4.47;;;19.20;99.90;;;;;;5032231;28;20229;-51
2022/08/31 07:56:16;;;;;;;7.68;4.88;;;19.40;99.90;;;;;;5031927;28;20539;-51
2022/08/31 07:58:44;;;;;;;5.13;4.63;;;19.70;99.90;;;;;;5031943;28;20190;-51
2022/08/31 08:01:10;;;;;;;7.40;4.60;;;19.90;99.90;;;;;;5031908;28;20160;-51
2022/08/31 08:03:39;;;;;;;6.55;4.63;;;20.00;99.90;;;;;;5031774;28;20202;-51
2022/08/31 08:06:11;;;;;;;5.82;5.10;;;20.30;99.90;;;;;;5031859;28;20167;-49
2022/08/31 08:08:37;;;;;;;5.82;4.90;;;20.50;99.90;;;;;;5032057;28;20171;-50
2022/08/31 08:11:03;;;;;;;8.07;5.90;;;20.70;99.90;;;;;;5031853;28;20178;-49
2022/08/31 08:13:30;;;;;;;7.47;5.03;;;20.90;99.90;;;;;;5032065;28;20326;-51
2022/08/31 08:15:55;;;;;;;9.35;5.55;;;21.00;99.90;;;;;;5032270;28;20206;-51
2022/08/31 08:18:21;;;;;;;10.07;5.72;;;21.10;99.90;;;;;;5031762;28;20202;-48
2022/08/31 08:20:47;;;;;;;10.18;5.60;;;21.30;99.90;;;;;;5031737;28;20163;-48
2022/08/31 08:23:15;;;;;;;9.50;5.82;;;21.50;99.90;;;;;;5031716;28;20194;-49
2022/08/31 08:25:41;;;;;;;6.78;5.32;;;21.70;99.90;;;;;;5031705;28;20171;-47
2022/08/31 08:28:07;;;;;;;10.75;6.47;;;21.80;99.90;;;;;;5031656;28;20167;-47
2022/08/31 08:30:33;;;;;;;10.13;6.28;;;22.00;99.90;;;;;;5031611;28;20537;-49
2022/08/31 08:33:04;;;;;;;8.23;6.15;;;21.80;99.90;;;;;;5031882;28;20171;-47
2022/08/31 08:35:31;;;;;;;9.77;6.60;;;22.40;99.90;;;;;;5031775;28;20182;-48
2022/08/31 08:37:57;;;;;;;10.43;6.30;;;22.10;99.90;;;;;;5032149;28;20226;-47
2022/08/31 08:40:38;;;;;;;7.60;6.38;;;22.20;99.90;;;;;;5031609;28;20167;-48
2022/08/31 08:43:04;;;;;;;11.75;6.88;;;22.40;99.90;;;;;;5031443;28;20641;-47
2022/08/31 08:45:31;;;;;;;10.70;7.07;;;22.30;99.90;;;;;;5031553;28;20182;-47
2022/08/31 08:47:57;;;;;;;8.82;6.57;;;22.40;99.90;;;;;;5031887;28;20309;-47
2022/08/31 08:50:26;;;;;;;9.35;6.80;;;22.50;99.90;;;;;;5031441;28;20171;-48
2022/08/31 08:52:55;;;;;;;7.30;6.35;;;22.60;99.90;;;;;;5031263;28;20163;-48
2022/08/31 08:55:35;;;;;;;8.30;6.43;;;22.60;99.90;;;;;;5031245;28;20588;-48
2022/08/31 08:58:04;;;;;;;7.70;6.15;;;22.60;99.90;;;;;;5032163;28;20167;-48
2022/08/31 09:00:32;;;;;;;8.55;6.13;;;22.80;99.90;;;;;;5035615;28;20171;-49
2022/08/31 09:03:09;;;;;;;7.30;6.22;;;23.00;99.90;;;;;;5035397;28;20175;-47
2022/08/31 09:06:00;;;;;;;8.60;5.55;;;23.10;99.90;;;;;;5035121;28;20190;-47
2022/08/31 09:09:06;;;;;;;8.50;5.55;;;23.10;99.90;;;;;;5035393;28;20178;-47
2022/08/31 09:11:45;;;;;;;10.30;5.90;;;23.40;99.90;;;;;;5035201;28;20171;-48
2022/08/31 09:14:33;;;;;;;7.70;5.07;;;23.30;99.90;;;;;;5034895;28;20292;-47
2022/08/31 09:17:16;;;;;;;7.10;5.35;;;23.10;99.90;;;;;;5035137;28;20202;-49
2022/08/31 09:20:03;;;;;;;7.25;5.47;;;23.40;99.90;;;;;;5035121;28;20314;-48
2022/08/31 09:22:47;;;;;;;5.60;5.10;;;23.30;99.90;;;;;;5035162;28;20180;-50
2022/08/31 09:25:33;;;;;;;5.32;4.82;;;23.30;99.90;;;;;;5034411;28;20202;-50
2022/08/31 09:28:02;;;;;;;5.25;4.75;;;23.40;99.90;;;;;;5033842;28;20511;-48
2022/08/31 09:30:51;;;;;;;8.52;5.55;;;23.30;99.90;;;;;;5034896;28;20266;-51
2022/08/31 09:33:26;;;;;;;5.45;4.60;;;23.50;99.90;;;;;;5034188;28;20167;-50
2022/08/31 09:35:57;;;;;;;5.80;5.13;;;23.40;99.90;;;;;;5034457;28;20159;-51
2022/08/31 09:38:42;;;;;;;5.75;4.80;;;23.60;99.90;;;;;;5034376;28;20635;-50
2022/08/31 09:41:28;;;;;;;8.00;5.07;;;23.70;99.90;;;;;;5034334;28;20164;-50
2022/08/31 09:44:16;;;;;;;6.53;4.63;;;24.10;99.90;;;;;;5033197;28;20713;-51
2022/08/31 09:46:55;;;;;;;6.03;4.57;;;24.20;99.90;;;;;;5034265;28;20160;-50
2022/08/31 09:49:32;;;;;;;6.22;5.35;;;24.30;99.90;;;;;;5034347;28;20518;-50
2022/08/31 09:55:12;;;;;;;6.72;4.85;;;24.40;99.90;;;;;;5034284;28;20175;-50
2022/08/31 09:55:12;;;;;;;6.85;5.10;;;24.30;99.90;;;;;;5034088;28;20175;-50
2022/08/31 09:57:51;;;;;;;6.22;5.10;;;24.30;99.90;;;;;;5034201;28;20170;-51
2022/08/31 10:00:30;;;;;;;8.20;4.82;;;24.40;99.90;;;;;;5033982;28;20221;-50
2022/08/31 10:03:07;;;;;;;6.60;5.00;;;24.60;99.90;;;;;;5034638;28;20201;-50
2022/08/31 10:05:39;;;;;;;6.82;5.43;;;24.60;99.90;;;;;;5034033;28;20213;-50
2022/08/31 10:08:45;;;;;;;10.05;4.50;;;24.90;99.90;;;;;;5034005;28;20532;-50
2022/08/31 10:11:19;;;;;;;5.50;4.50;;;25.00;99.90;;;;;;5034209;28;20254;-50
2022/08/31 10:14:15;;;;;;;6.25;4.22;;;25.00;99.90;;;;;;5033825;28;20249;-49
2022/08/31 10:16:51;;;;;;;5.47;4.97;;;25.30;99.90;;;;;;5023306;28;20182;-50
2022/08/31 10:19:31;;;;;;;7.97;5.05;;;25.30;99.90;;;;;;5033502;28;20159;-49
2022/08/31 10:22:03;;;;;;;6.85;6.15;;;25.40;99.90;;;;;;5033582;28;20167;-50
2022/08/31 10:24:45;;;;;;;6.85;5.47;;;25.40;99.90;;;;;;5033988;28;20681;-50
2022/08/31 10:27:28;;;;;;;8.02;5.65;;;25.50;99.90;;;;;;5033859;28;20174;-50
2022/08/31 10:29:59;;;;;;;7.47;5.32;;;25.50;99.90;;;;;;5033688;28;20171;-50
2022/08/31 10:32:33;;;;;;;8.13;5.75;;;25.80;99.90;;;;;;5033827;28;20693;-50
2022/08/31 10:35:05;;;;;;;8.32;5.45;;;26.00;99.90;;;;;;5032990;28;20162;-48
2022/08/31 10:37:59;;;;;;;7.40;6.15;;;25.90;99.90;;;;;;5033071;28;20167;-49
2022/08/31 10:40:30;;;;;;;8.27;6.65;;;25.90;99.90;;;;;;5026046;28;20183;-48
2022/08/31 10:43:21;;;;;;;7.00;4.88;;;25.60;99.90;;;;;;5033822;28;20170;-49
2022/08/31 10:45:51;;;;;;;9.10;4.35;;;25.60;99.90;;;;;;5033408;28;20208;-48
2022/08/31 10:48:21;;;;;;;7.68;4.85;;;25.70;99.90;;;;;;5033142;28;20309;-50
2022/08/31 10:51:04;;;;;;;7.03;4.82;;;25.60;99.90;;;;;;5033364;28;20167;-48
2022/08/31 10:53:51;;;;;;;7.32;5.18;;;26.10;99.90;;;;;;5033440;28;20456;-47
2022/08/31 10:56:34;;;;;;;7.35;5.72;;;26.50;99.90;;;;;;5033248;28;20182;-50
2022/08/31 10:59:34;;;;;;;6.88;4.75;;;26.70;99.90;;;;;;5032841;28;20193;-51
2022/08/31 11:02:18;;;;;;;6.90;4.47;;;26.80;99.90;;;;;;5033002;28;20167;-51
2022/08/31 11:04:50;;;;;;;8.05;6.18;;;26.60;99.90;;;;;;5032807;28;20573;-51
2022/08/31 11:07:24;;;;;;;9.55;7.43;;;26.50;99.90;;;;;;5032708;28;20177;-51
2022/08/31 11:09:58;;;;;;;6.50;5.55;;;26.60;99.90;;;;;;5032701;28;20196;-49
2022/08/31 11:12:40;;;;;;;10.65;6.00;;;26.70;99.90;;;;;;5032947;28;20167;-50
2022/08/31 11:15:27;;;;;;;6.72;5.75;;;26.50;99.90;;;;;;5032925;28;20254;-50
2022/08/31 11:18:04;;;;;;;7.43;5.70;;;26.60;99.90;;;;;;5032496;28;20575;-48
2022/08/31 11:20:47;;;;;;;6.50;5.47;;;27.10;99.90;;;;;;5032159;28;20169;-48
2022/08/31 11:23:52;;;;;;;6.00;4.90;;;27.30;99.90;;;;;;5032532;28;20167;-48
2022/08/31 11:26:38;;;;;;;6.45;4.95;;;27.50;99.90;;;;;;5031993;28;20174;-47
2022/08/31 11:29:29;;;;;;;5.05;4.65;;;27.40;99.90;;;;;;5032470;28;20169;-47
2022/08/31 11:32:09;;;;;;;5.07;4.25;;;26.60;99.90;;;;;;5032668;28;20250;-47
2022/08/31 11:34:46;;;;;;;5.18;4.68;;;26.70;99.90;;;;;;5032163;28;20236;-48
2022/08/31 11:37:32;;;;;;;5.00;4.00;;;26.90;99.90;;;;;;5032415;28;20170;-47
2022/08/31 11:39:58;;;;;;;5.65;4.35;;;27.30;99.90;;;;;;5032367;28;20544;-50
2022/08/31 11:42:26;;;;;;;5.35;4.28;;;27.10;99.90;;;;;;5032673;28;20224;-48
2022/08/31 11:45:07;;;;;;;9.50;4.82;;;27.50;99.90;;;;;;5030795;28;20205;-47
2022/08/31 11:47:36;;;;;;;5.63;4.40;;;28.00;99.90;;;;;;5032190;28;20166;-47
2022/08/31 11:50:09;;;;;;;4.93;4.40;;;27.60;99.90;;;;;;5032079;28;20159;-48
2022/08/31 11:52:52;;;;;;;7.25;4.78;;;27.60;99.90;;;;;;5032260;28;20171;-46
2022/08/31 11:55:29;;;;;;;7.10;5.20;;;27.40;99.90;;;;;;5031501;28;20537;-48
2022/08/31 11:58:08;;;;;;;6.88;4.00;;;27.20;99.90;;;;;;5032092;28;20684;-47
2022/08/31 12:00:45;;;;;;;14.85;10.15;;;27.10;99.90;;;;;;5032008;28;20178;-48
2022/08/31 12:03:33;;;;;;;12.38;8.35;;;27.10;99.90;;;;;;5031683;28;20634;-47
2022/08/31 12:05:59;;;;;;;7.57;5.85;;;27.50;99.90;;;;;;5031691;28;20174;-48
2022/08/31 12:08:46;;;;;;;7.70;4.50;;;27.40;99.90;;;;;;5031741;28;20182;-47
2022/08/31 12:11:27;;;;;;;4.47;3.63;;;27.30;99.90;;;;;;5031408;28;20171;-48
2022/08/31 12:14:00;;;;;;;4.45;3.30;;;26.90;99.90;;;;;;5031479;28;20309;-48
2022/08/31 12:16:46;;;;;;;4.53;4.13;;;27.10;99.90;;;;;;5032127;28;20170;-47
2022/08/31 12:25:26;;;;;;;8.18;5.10;;;27.40;99.90;;;;;;5031184;28;20216;-47
2022/08/31 12:28:01;;;;;;;7.05;5.97;;;27.50;99.90;;;;;;5031227;28;20178;-47
2022/08/31 12:30:27;;;;;;;7.25;4.60;;;27.20;99.90;;;;;;5031836;28;20540;-47
2022/08/31 12:33:16;;;;;;;6.75;5.32;;;27.40;99.90;;;;;;5033816;28;20181;-48
2022/08/31 12:35:45;;;;;;;5.53;4.03;;;27.50;99.90;;;;;;5035478;28;20163;-48
2022/08/31 12:38:18;;;;;;;17.80;10.75;;;27.40;99.90;;;;;;5035423;28;20253;-47
2022/08/31 12:40:49;;;;;;;5.13;4.15;;;27.60;99.90;;;;;;5035391;28;20206;-48
2022/08/31 12:43:30;;;;;;;5.97;4.45;;;27.40;99.90;;;;;;5035197;28;20170;-47
2022/08/31 12:46:10;;;;;;;5.65;4.70;;;27.40;99.90;;;;;;5035808;28;20261;-47
2022/08/31 12:48:55;;;;;;;6.35;4.97;;;27.20;99.90;;;;;;5035427;28;20166;-48
2022/08/31 12:51:30;;;;;;;12.20;6.80;;;27.10;99.90;;;;;;5035496;28;20285;-47
2022/08/31 12:54:26;;;;;;;4.45;4.00;;;27.30;99.90;;;;;;5035277;28;20166;-47
2022/08/31 12:57:29;;;;;;;6.70;4.90;;;27.20;99.90;;;;;;5034733;28;20198;-51
2022/08/31 13:00:27;;;;;;;6.40;4.20;;;27.50;99.90;;;;;;5035332;28;20166;-48
2022/08/31 13:03:16;;;;;;;5.75;5.20;;;27.90;99.90;;;;;;5034951;28;20159;-49
2022/08/31 13:05:57;;;;;;;8.25;5.90;;;27.70;99.90;;;;;;5035446;28;20182;-48
2022/08/31 13:08:24;;;;;;;13.05;6.70;;;27.60;99.90;;;;;;5035431;28;20572;-48
2022/08/31 13:10:50;;;;;;;8.55;6.03;;;27.90;99.90;;;;;;5035064;28;20642;-48
2022/08/31 13:13:25;;;;;;;14.93;8.90;;;28.00;99.90;;;;;;5034920;28;20229;-48
2022/08/31 13:15:59;;;;;;;15.55;9.02;;;27.90;99.90;;;;;;5035227;28;20257;-49
2022/08/31 13:18:29;;;;;;;19.02;11.35;;;27.80;99.90;;;;;;5035342;28;20169;-49
2022/08/31 13:21:04;;;;;;;20.45;12.88;;;28.00;99.90;;;;;;5035437;28;20584;-49
2022/08/31 13:23:33;;;;;;;13.95;8.20;;;27.70;99.90;;;;;;5034705;28;20209;-47